Lincolndale, New York
Current Conditions -  °F | °C
As of 11:53 PM on Wednesday 22 Oct 2014 (Local Time) from KDXR Reporting Station
Overcast Overcast  
Wind Chill: 50°   Ceiling: 1700
Heat Index: 50°   Visibility: 10mi
Dew Point: 44°   Wind: 12mph
Humidity: 80%   Direction: 30°NNE
Pressure: 29.78"   Gusts: 22mph
Location:  41.32°N, 73.72°W
Report Text: KDXR 230353Z AUTO 03010G19KT 10SM OVC017 10/07 A2978 RMK AO2 RAE09 SLP085 P0001 T01000067
Loading
Personal Weather Stations






























Interactive Weather Map
Tropical Storm Tracking
New forecast layout! Learn more

10-Day Weather Forecast

Advertisements
Track Severe Weather on mobile